This is the latest recevied weather packets stored in our database for station/object KC3WWU. If no packets are shown the sender has not sent any weather packets the latest 1 day(s).
| Time | Temp. | Humidity | Pressure | Rain* | Wind** | Luminosity | Snow |
|---|---|---|---|---|---|---|---|
| 1777981215 | 15° C | 78% | 1007.9 hPa | 0 mm | 0.89 m/s, 354° | 51 W/m² | - |
| 1777980912 | 15° C | 78% | 1007.9 hPa | 0 mm | 1.79 m/s, 287° | 46 W/m² | - |
| 1777980609 | 15° C | 79% | 1008 hPa | 0 mm | 0.89 m/s, 45° | 40 W/m² | - |
| 1777980305 | 15° C | 78% | 1007.7 hPa | 0 mm | 0.89 m/s, 356° | 23 W/m² | - |
| 1777980003 | 14.44° C | 79% | 1007.7 hPa | 0 mm | 0.89 m/s, 4° | 37 W/m² | - |
| 1777979701 | 14.44° C | 82% | 1007.8 hPa | 0 mm | 0.45 m/s, 33° | 19 W/m² | - |
| 1777979398 | 14.44° C | 80% | 1007.8 hPa | 0 mm | 0.89 m/s, 67° | 6 W/m² | - |
| 1777979095 | 14.44° C | 80% | 1007.6 hPa | 0 mm | 0.89 m/s, 33° | 29 W/m² | - |
| 1777978792 | 14.44° C | 81% | 1007.7 hPa | 0 mm | 1.79 m/s, 325° | 23 W/m² | - |
| 1777978488 | 13.89° C | 82% | 1007.4 hPa | 0 mm | 0.89 m/s, 20° | 27 W/m² | - |
| 1777978184 | 13.33° C | 84% | 1007.7 hPa | 0 mm | 0 m/s | 18 W/m² | - |
| 1777977882 | 13.33° C | 86% | 1007.5 hPa | 0 mm | 0.89 m/s, 46° | 13 W/m² | - |
| 1777977578 | 13.33° C | 86% | 1007.2 hPa | 0 mm | 0 m/s | 13 W/m² | - |
| 1777977276 | 13.33° C | 88% | 1007.4 hPa | 0 mm | 0 m/s | 10 W/m² | - |
| 1777976973 | 13.33° C | 86% | 1007.3 hPa | 0 mm | 0.45 m/s, 34° | 9 W/m² | - |
| 1777976670 | 13.89° C | 86% | 1007.2 hPa | 0 mm | 0 m/s | 5 W/m² | - |
| 1777976367 | 13.33° C | 87% | 1007.2 hPa | 0 mm | 0.45 m/s, 46° | 4 W/m² | - |
| 1777976066 | 13.89° C | 84% | 1007.3 hPa | 0 mm | 0.45 m/s, 46° | 2 W/m² | - |
| 1777975762 | 13.89° C | 83% | 1007.1 hPa | 0 mm | 0.45 m/s, 28° | 1 W/m² | - |
| 1777975459 | 13.89° C | 83% | 1007 hPa | 0 mm | 0.45 m/s, 39° | 1 W/m² | - |
| 1777975155 | 13.89° C | 81% | 1006.8 hPa | 0 mm | 0.45 m/s, 48° | 0 W/m² | - |
| 1777974852 | 13.89° C | 81% | 1006.8 hPa | 0 mm | 0.89 m/s, 1° | 0 W/m² | - |
| 1777974548 | 13.89° C | 85% | 1006.6 hPa | 0 mm | 0.89 m/s, 97° | 0 W/m² | - |
| 1777974246 | 13.33° C | 81% | 1006.9 hPa | 0 mm | 0.45 m/s, 44° | 0 W/m² | - |
| 1777973941 | 13.33° C | 84% | 1006.8 hPa | 0 mm | 0.45 m/s, 49° | 0 W/m² | - |
* Rain latest hour (hover to see other rain measurements)
** Current wind speed in m/s (hover to see current wind gust speed)